sensor_id;sensor_type;location;lat;lon;timestamp;pressure;altitude;pressure_sealevel;temperature;humidity
41573;BME280;27286;47.870;19.006;2023-02-04T00:00:50;98921.19;;;2.55;95.93
41573;BME280;27286;47.870;19.006;2023-02-04T00:03:16;98914.47;;;2.47;96.37
41573;BME280;27286;47.870;19.006;2023-02-04T00:05:42;98910.31;;;2.39;97.10
41573;BME280;27286;47.870;19.006;2023-02-04T00:08:07;98916.41;;;2.32;97.41
41573;BME280;27286;47.870;19.006;2023-02-04T00:10:33;98914.78;;;2.28;97.49
41573;BME280;27286;47.870;19.006;2023-02-04T00:12:59;98921.59;;;2.29;97.84
41573;BME280;27286;47.870;19.006;2023-02-04T00:15:25;98914.66;;;2.36;97.33
41573;BME280;27286;47.870;19.006;2023-02-04T00:17:50;98919.81;;;2.34;97.97
41573;BME280;27286;47.870;19.006;2023-02-04T00:20:16;98925.88;;;2.30;98.62
41573;BME280;27286;47.870;19.006;2023-02-04T00:22:43;98914.78;;;2.28;99.14
41573;BME280;27286;47.870;19.006;2023-02-04T00:25:09;98918.88;;;2.40;98.12
41573;BME280;27286;47.870;19.006;2023-02-04T00:27:36;98914.50;;;2.45;97.62
41573;BME280;27286;47.870;19.006;2023-02-04T00:30:03;98922.91;;;2.55;97.46
41573;BME280;27286;47.870;19.006;2023-02-04T00:32:29;98919.47;;;2.56;96.64
41573;BME280;27286;47.870;19.006;2023-02-04T00:34:54;98918.66;;;2.54;96.90
41573;BME280;27286;47.870;19.006;2023-02-04T00:37:19;98921.16;;;2.57;97.27
41573;BME280;27286;47.870;19.006;2023-02-04T00:39:45;98924.53;;;2.60;97.09
41573;BME280;27286;47.870;19.006;2023-02-04T00:42:10;98926.09;;;2.67;96.29
41573;BME280;27286;47.870;19.006;2023-02-04T00:44:36;98915.91;;;2.63;96.89
41573;BME280;27286;47.870;19.006;2023-02-04T00:47:02;98917.66;;;2.61;96.72
41573;BME280;27286;47.870;19.006;2023-02-04T00:49:27;98916.91;;;2.56;97.24
41573;BME280;27286;47.870;19.006;2023-02-04T00:51:53;98918.69;;;2.51;96.86
41573;BME280;27286;47.870;19.006;2023-02-04T00:54:18;98912.75;;;2.47;97.68
41573;BME280;27286;47.870;19.006;2023-02-04T00:56:44;98901.63;;;2.47;98.15
41573;BME280;27286;47.870;19.006;2023-02-04T00:59:09;98903.41;;;2.43;98.30
41573;BME280;27286;47.870;19.006;2023-02-04T01:01:35;98902.50;;;2.46;98.72
41573;BME280;27286;47.870;19.006;2023-02-04T01:04:01;98893.94;;;2.45;98.53
41573;BME280;27286;47.870;19.006;2023-02-04T01:06:26;98889.66;;;2.46;98.78
41573;BME280;27286;47.870;19.006;2023-02-04T01:08:53;98887.84;;;2.52;98.01
41573;BME280;27286;47.870;19.006;2023-02-04T01:11:18;98877.56;;;2.51;98.24
41573;BME280;27286;47.870;19.006;2023-02-04T01:13:44;98874.03;;;2.58;97.51
41573;BME280;27286;47.870;19.006;2023-02-04T01:16:10;98879.13;;;2.61;97.68
41573;BME280;27286;47.870;19.006;2023-02-04T01:18:35;98873.00;;;2.66;96.98
41573;BME280;27286;47.870;19.006;2023-02-04T01:21:01;98860.94;;;2.71;96.59
41573;BME280;27286;47.870;19.006;2023-02-04T01:23:26;98868.72;;;2.67;97.14
41573;BME280;27286;47.870;19.006;2023-02-04T01:25:52;98860.97;;;2.70;96.92
41573;BME280;27286;47.870;19.006;2023-02-04T01:28:18;98856.44;;;2.81;95.96
41573;BME280;27286;47.870;19.006;2023-02-04T01:30:43;98854.56;;;2.91;94.65
41573;BME280;27286;47.870;19.006;2023-02-04T01:33:09;98864.88;;;2.89;94.88
41573;BME280;27286;47.870;19.006;2023-02-04T01:35:34;98853.38;;;3.07;93.21
41573;BME280;27286;47.870;19.006;2023-02-04T01:37:59;98857.78;;;3.00;93.68
41573;BME280;27286;47.870;19.006;2023-02-04T01:40:25;98858.72;;;2.96;93.73
41573;BME280;27286;47.870;19.006;2023-02-04T01:42:51;98856.75;;;3.09;92.30
41573;BME280;27286;47.870;19.006;2023-02-04T01:45:17;98854.31;;;3.03;93.33
41573;BME280;27286;47.870;19.006;2023-02-04T01:47:43;98863.72;;;3.04;93.28
41573;BME280;27286;47.870;19.006;2023-02-04T01:50:12;98860.13;;;3.13;92.49
41573;BME280;27286;47.870;19.006;2023-02-04T01:52:39;98856.50;;;3.23;91.16
41573;BME280;27286;47.870;19.006;2023-02-04T01:55:12;98854.03;;;3.17;91.11
41573;BME280;27286;47.870;19.006;2023-02-04T01:57:38;98866.88;;;3.17;91.13
41573;BME280;27286;47.870;19.006;2023-02-04T02:00:09;98858.50;;;3.09;92.70
41573;BME280;27286;47.870;19.006;2023-02-04T02:02:47;98860.13;;;3.13;92.29
41573;BME280;27286;47.870;19.006;2023-02-04T02:05:17;98859.00;;;3.26;90.22
41573;BME280;27286;47.870;19.006;2023-02-04T02:07:45;98848.72;;;3.24;90.40
41573;BME280;27286;47.870;19.006;2023-02-04T02:10:12;98857.06;;;3.36;89.04
41573;BME280;27286;47.870;19.006;2023-02-04T02:12:38;98857.94;;;3.35;88.66
41573;BME280;27286;47.870;19.006;2023-02-04T02:15:04;98852.63;;;3.42;87.94
41573;BME280;27286;47.870;19.006;2023-02-04T02:17:29;98846.03;;;3.30;89.33
41573;BME280;27286;47.870;19.006;2023-02-04T02:19:55;98849.50;;;3.28;89.68
41573;BME280;27286;47.870;19.006;2023-02-04T02:22:29;98853.09;;;3.21;89.62
41573;BME280;27286;47.870;19.006;2023-02-04T02:24:56;98844.75;;;3.10;91.40
41573;BME280;27286;47.870;19.006;2023-02-04T02:27:22;98834.28;;;3.17;90.84
41573;BME280;27286;47.870;19.006;2023-02-04T02:29:48;98840.97;;;3.26;89.82
41573;BME280;27286;47.870;19.006;2023-02-04T02:32:14;98846.31;;;3.17;91.19
41573;BME280;27286;47.870;19.006;2023-02-04T02:34:41;98837.78;;;3.15;91.85
41573;BME280;27286;47.870;19.006;2023-02-04T02:37:07;98846.22;;;3.21;91.76
41573;BME280;27286;47.870;19.006;2023-02-04T02:39:34;98843.78;;;3.15;92.39
41573;BME280;27286;47.870;19.006;2023-02-04T02:42:00;98841.88;;;3.25;91.77
41573;BME280;27286;47.870;19.006;2023-02-04T02:44:26;98844.19;;;3.37;91.34
41573;BME280;27286;47.870;19.006;2023-02-04T02:46:53;98851.97;;;3.32;91.97
41573;BME280;27286;47.870;19.006;2023-02-04T02:49:19;98838.00;;;3.44;91.20
41573;BME280;27286;47.870;19.006;2023-02-04T02:51:46;98835.44;;;3.44;91.83
41573;BME280;27286;47.870;19.006;2023-02-04T02:54:22;98836.47;;;3.37;92.49
41573;BME280;27286;47.870;19.006;2023-02-04T02:56:49;98821.03;;;3.37;91.73
41573;BME280;27286;47.870;19.006;2023-02-04T02:59:15;98845.84;;;3.40;92.92
41573;BME280;27286;47.870;19.006;2023-02-04T03:01:42;98838.16;;;3.38;93.37
41573;BME280;27286;47.870;19.006;2023-02-04T03:04:08;98835.59;;;3.38;94.05
41573;BME280;27286;47.870;19.006;2023-02-04T03:06:35;98833.91;;;3.36;94.97
41573;BME280;27286;47.870;19.006;2023-02-04T03:09:00;98834.78;;;3.36;95.49
41573;BME280;27286;47.870;19.006;2023-02-04T03:11:26;98832.25;;;3.33;95.62
41573;BME280;27286;47.870;19.006;2023-02-04T03:13:55;98824.47;;;3.36;95.80
41573;BME280;27286;47.870;19.006;2023-02-04T03:16:21;98825.63;;;3.23;97.24
41573;BME280;27286;47.870;19.006;2023-02-04T03:18:47;98833.22;;;3.27;96.30
41573;BME280;27286;47.870;19.006;2023-02-04T03:21:13;98820.44;;;3.24;96.33
41573;BME280;27286;47.870;19.006;2023-02-04T03:23:38;98819.56;;;3.25;96.93
41573;BME280;27286;47.870;19.006;2023-02-04T03:26:04;98810.81;;;3.32;95.75
41573;BME280;27286;47.870;19.006;2023-02-04T03:28:31;98810.91;;;3.28;96.35
41573;BME280;27286;47.870;19.006;2023-02-04T03:30:57;98816.06;;;3.28;96.17
41573;BME280;27286;47.870;19.006;2023-02-04T03:33:24;98804.84;;;3.30;96.04
41573;BME280;27286;47.870;19.006;2023-02-04T03:35:51;98814.00;;;3.44;94.68
41573;BME280;27286;47.870;19.006;2023-02-04T03:38:17;98808.75;;;3.48;94.43
41573;BME280;27286;47.870;19.006;2023-02-04T03:40:43;98814.38;;;3.27;96.58
41573;BME280;27286;47.870;19.006;2023-02-04T03:43:08;98802.53;;;3.18;98.01
41573;BME280;27286;47.870;19.006;2023-02-04T03:45:34;98811.22;;;3.14;98.82
41573;BME280;27286;47.870;19.006;2023-02-04T03:47:59;98790.88;;;3.04;99.99
41573;BME280;27286;47.870;19.006;2023-02-04T03:50:24;98798.78;;;2.94;100.00
41573;BME280;27286;47.870;19.006;2023-02-04T03:52:50;98799.75;;;2.89;100.00
41573;BME280;27286;47.870;19.006;2023-02-04T03:55:16;98785.38;;;2.79;100.00
41573;BME280;27286;47.870;19.006;2023-02-04T03:57:42;98801.78;;;2.73;100.00
41573;BME280;27286;47.870;19.006;2023-02-04T04:00:08;98789.03;;;2.67;100.00
41573;BME280;27286;47.870;19.006;2023-02-04T04:02:34;98782.38;;;2.58;100.00
41573;BME280;27286;47.870;19.006;2023-02-04T04:04:59;98791.72;;;2.62;100.00
41573;BME280;27286;47.870;19.006;2023-02-04T04:07:24;98787.44;;;2.61;100.00
41573;BME280;27286;47.870;19.006;2023-02-04T04:09:50;98797.75;;;2.60;100.00
41573;BME280;27286;47.870;19.006;2023-02-04T04:12:15;98801.06;;;2.65;100.00
41573;BME280;27286;47.870;19.006;2023-02-04T04:14:41;98802.00;;;2.62;100.00
41573;BME280;27286;47.870;19.006;2023-02-04T04:17:06;98781.34;;;2.67;100.00
41573;BME280;27286;47.870;19.006;2023-02-04T04:19:31;98785.66;;;2.65;100.00
41573;BME280;27286;47.870;19.006;2023-02-04T04:21:57;98785.66;;;2.65;100.00
41573;BME280;27286;47.870;19.006;2023-02-04T04:24:22;98782.19;;;2.69;100.00
41573;BME280;27286;47.870;19.006;2023-02-04T04:26:48;98779.59;;;2.69;100.00
41573;BME280;27286;47.870;19.006;2023-02-04T04:29:13;98792.31;;;2.75;100.00
41573;BME280;27286;47.870;19.006;2023-02-04T04:31:39;98782.84;;;2.77;100.00
41573;BME280;27286;47.870;19.006;2023-02-04T04:34:04;98770.88;;;2.76;100.00
41573;BME280;27286;47.870;19.006;2023-02-04T04:36:29;98761.28;;;2.84;100.00
41573;BME280;27286;47.870;19.006;2023-02-04T04:38:55;98774.13;;;2.86;100.00
41573;BME280;27286;47.870;19.006;2023-02-04T04:41:20;98765.66;;;2.79;100.00
41573;BME280;27286;47.870;19.006;2023-02-04T04:43:46;98768.94;;;2.87;100.00
41573;BME280;27286;47.870;19.006;2023-02-04T04:46:11;98767.25;;;2.85;100.00
41573;BME280;27286;47.870;19.006;2023-02-04T04:48:37;98766.41;;;2.86;100.00
41573;BME280;27286;47.870;19.006;2023-02-04T04:51:02;98768.06;;;2.88;100.00
41573;BME280;27286;47.870;19.006;2023-02-04T04:53:28;98758.59;;;2.90;100.00
41573;BME280;27286;47.870;19.006;2023-02-04T04:55:54;98748.97;;;2.98;100.00
41573;BME280;27286;47.870;19.006;2023-02-04T04:58:19;98740.34;;;3.01;100.00
41573;BME280;27286;47.870;19.006;2023-02-04T05:00:45;98744.69;;;2.99;100.00
41573;BME280;27286;47.870;19.006;2023-02-04T05:03:10;98742.06;;;3.00;100.00
41573;BME280;27286;47.870;19.006;2023-02-04T05:05:36;98732.41;;;3.12;100.00
41573;BME280;27286;47.870;19.006;2023-02-04T05:08:05;98733.47;;;3.03;100.00
41573;BME280;27286;47.870;19.006;2023-02-04T05:10:35;98734.25;;;3.07;100.00
41573;BME280;27286;47.870;19.006;2023-02-04T05:13:00;98729.97;;;3.06;100.00
41573;BME280;27286;47.870;19.006;2023-02-04T05:15:26;98730.91;;;3.03;100.00
41573;BME280;27286;47.870;19.006;2023-02-04T05:17:51;98734.91;;;3.15;99.33
41573;BME280;27286;47.870;19.006;2023-02-04T05:20:17;98724.81;;;3.07;100.00
41573;BME280;27286;47.870;19.006;2023-02-04T05:22:43;98753.09;;;3.07;100.00
41573;BME280;27286;47.870;19.006;2023-02-04T05:25:08;98753.28;;;2.98;100.00
41573;BME280;27286;47.870;19.006;2023-02-04T05:27:34;98751.59;;;2.97;100.00
41573;BME280;27286;47.870;19.006;2023-02-04T05:30:00;98724.09;;;2.99;100.00
41573;BME280;27286;47.870;19.006;2023-02-04T05:32:25;98739.50;;;3.00;100.00
41573;BME280;27286;47.870;19.006;2023-02-04T05:34:51;98742.88;;;3.04;99.27
41573;BME280;27286;47.870;19.006;2023-02-04T05:37:16;98752.47;;;2.96;99.57
41573;BME280;27286;47.870;19.006;2023-02-04T05:39:45;98738.13;;;2.86;100.00
41573;BME280;27286;47.870;19.006;2023-02-04T05:42:11;98763.81;;;2.87;99.08
41573;BME280;27286;47.870;19.006;2023-02-04T05:44:36;98760.56;;;2.78;97.82
41573;BME280;27286;47.870;19.006;2023-02-04T05:47:02;98766.59;;;2.77;96.60
41573;BME280;27286;47.870;19.006;2023-02-04T05:49:27;98760.78;;;2.67;96.20
41573;BME280;27286;47.870;19.006;2023-02-04T05:51:53;98762.56;;;2.63;93.26
41573;BME280;27286;47.870;19.006;2023-02-04T05:54:18;98773.69;;;2.64;92.00
41573;BME280;27286;47.870;19.006;2023-02-04T05:56:47;98777.19;;;2.60;90.92
41573;BME280;27286;47.870;19.006;2023-02-04T05:59:12;98786.75;;;2.52;91.44
41573;BME280;27286;47.870;19.006;2023-02-04T06:01:38;98787.72;;;2.48;89.58
41573;BME280;27286;47.870;19.006;2023-02-04T06:04:03;98781.91;;;2.38;89.79
41573;BME280;27286;47.870;19.006;2023-02-04T06:06:29;98793.94;;;2.36;89.62
41573;BME280;27286;47.870;19.006;2023-02-04T06:08:54;98796.63;;;2.28;89.98
41573;BME280;27286;47.870;19.006;2023-02-04T06:11:20;98806.13;;;2.25;89.36
41573;BME280;27286;47.870;19.006;2023-02-04T06:13:45;98809.41;;;2.31;88.48
41573;BME280;27286;47.870;19.006;2023-02-04T06:16:10;98829.31;;;2.20;89.43
41573;BME280;27286;47.870;19.006;2023-02-04T06:18:36;98802.66;;;2.27;89.49
41573;BME280;27286;47.870;19.006;2023-02-04T06:21:01;98842.88;;;2.28;89.06
41573;BME280;27286;47.870;19.006;2023-02-04T06:23:29;98827.44;;;2.30;89.42
41573;BME280;27286;47.870;19.006;2023-02-04T06:25:55;98835.97;;;2.30;89.61
41573;BME280;27286;47.870;19.006;2023-02-04T06:28:20;98839.34;;;2.34;88.58
41573;BME280;27286;47.870;19.006;2023-02-04T06:30:46;98836.09;;;2.24;89.44
41573;BME280;27286;47.870;19.006;2023-02-04T06:33:11;98815.53;;;2.24;88.50
41573;BME280;27286;47.870;19.006;2023-02-04T06:35:37;98814.69;;;2.24;88.98
41573;BME280;27286;47.870;19.006;2023-02-04T06:38:02;98819.88;;;2.22;87.42
41573;BME280;27286;47.870;19.006;2023-02-04T06:40:27;98825.81;;;2.24;88.22
41573;BME280;27286;47.870;19.006;2023-02-04T06:42:53;98832.75;;;2.21;87.13
41573;BME280;27286;47.870;19.006;2023-02-04T06:45:18;98831.03;;;2.18;85.92
41573;BME280;27286;47.870;19.006;2023-02-04T06:47:44;98826.06;;;2.10;86.25
41573;BME280;27286;47.870;19.006;2023-02-04T06:50:09;98834.63;;;2.09;86.84
41573;BME280;27286;47.870;19.006;2023-02-04T06:52:34;98811.63;;;2.03;84.31
41573;BME280;27286;47.870;19.006;2023-02-04T06:55:01;98814.31;;;1.96;85.63
41573;BME280;27286;47.870;19.006;2023-02-04T06:57:26;98833.97;;;1.97;83.77
41573;BME280;27286;47.870;19.006;2023-02-04T06:59:52;98845.31;;;1.84;84.91
41573;BME280;27286;47.870;19.006;2023-02-04T07:02:18;98859.00;;;1.86;85.63
41573;BME280;27286;47.870;19.006;2023-02-04T07:04:44;98863.25;;;1.87;84.91
41573;BME280;27286;47.870;19.006;2023-02-04T07:07:10;98862.22;;;1.97;85.24
41573;BME280;27286;47.870;19.006;2023-02-04T07:09:35;98870.69;;;2.03;84.95
41573;BME280;27286;47.870;19.006;2023-02-04T07:12:01;98880.81;;;2.11;83.58
41573;BME280;27286;47.870;19.006;2023-02-04T07:14:27;98878.91;;;2.24;82.58
41573;BME280;27286;47.870;19.006;2023-02-04T07:16:52;98863.28;;;2.37;81.98
41573;BME280;27286;47.870;19.006;2023-02-04T07:19:17;98882.72;;;2.51;81.43
41573;BME280;27286;47.870;19.006;2023-02-04T07:21:43;98887.59;;;2.64;80.03
41573;BME280;27286;47.870;19.006;2023-02-04T07:24:08;98899.78;;;3.01;78.19
41573;BME280;27286;47.870;19.006;2023-02-04T07:26:34;98889.53;;;3.41;76.33
41573;BME280;27286;47.870;19.006;2023-02-04T07:28:59;98899.44;;;3.59;75.38
41573;BME280;27286;47.870;19.006;2023-02-04T07:31:25;98917.00;;;3.81;76.02
41573;BME280;27286;47.870;19.006;2023-02-04T07:33:50;98913.34;;;3.91;74.22
41573;BME280;27286;47.870;19.006;2023-02-04T07:36:15;98920.09;;;3.95;73.24
41573;BME280;27286;47.870;19.006;2023-02-04T07:38:41;98926.25;;;3.89;73.06
41573;BME280;27286;47.870;19.006;2023-02-04T07:41:06;98950.59;;;3.75;73.18
41573;BME280;27286;47.870;19.006;2023-02-04T07:43:32;98939.00;;;3.55;72.43
41573;BME280;27286;47.870;19.006;2023-02-04T07:45:57;98955.66;;;3.38;73.56
41573;BME280;27286;47.870;19.006;2023-02-04T07:48:22;98961.16;;;3.18;74.27
41573;BME280;27286;47.870;19.006;2023-02-04T07:50:48;98962.13;;;3.14;74.88
41573;BME280;27286;47.870;19.006;2023-02-04T07:53:13;98965.75;;;3.04;73.86
41573;BME280;27286;47.870;19.006;2023-02-04T07:55:39;98982.94;;;3.00;75.10
41573;BME280;27286;47.870;19.006;2023-02-04T07:58:04;98988.91;;;3.00;74.67
41573;BME280;27286;47.870;19.006;2023-02-04T08:00:29;98980.44;;;2.95;75.36
41573;BME280;27286;47.870;19.006;2023-02-04T08:02:55;98987.50;;;2.86;75.07
41573;BME280;27286;47.870;19.006;2023-02-04T08:05:21;99006.38;;;2.83;75.73
41573;BME280;27286;47.870;19.006;2023-02-04T08:07:46;99031.38;;;2.75;75.21
41573;BME280;27286;47.870;19.006;2023-02-04T08:10:11;99007.28;;;2.79;74.39
41573;BME280;27286;47.870;19.006;2023-02-04T08:12:37;99033.13;;;2.71;74.67
41573;BME280;27286;47.870;19.006;2023-02-04T08:17:32;99011.97;;;2.56;74.48
41573;BME280;27286;47.870;19.006;2023-02-04T08:19:58;99022.75;;;2.78;73.47
41573;BME280;27286;47.870;19.006;2023-02-04T08:22:23;98990.72;;;2.97;72.40
41573;BME280;27286;47.870;19.006;2023-02-04T08:24:48;99003.47;;;3.03;71.70
41573;BME280;27286;47.870;19.006;2023-02-04T08:27:14;99030.81;;;3.07;70.68
41573;BME280;27286;47.870;19.006;2023-02-04T08:29:39;99077.19;;;3.50;70.49
41573;BME280;27286;47.870;19.006;2023-02-04T08:32:05;99068.59;;;3.96;68.46
41573;BME280;27286;47.870;19.006;2023-02-04T08:34:30;99083.56;;;4.20;66.23
41573;BME280;27286;47.870;19.006;2023-02-04T08:36:56;99083.81;;;4.47;66.50
41573;BME280;27286;47.870;19.006;2023-02-04T08:39:21;99095.28;;;4.34;63.23
41573;BME280;27286;47.870;19.006;2023-02-04T08:41:47;99116.13;;;4.23;63.94
41573;BME280;27286;47.870;19.006;2023-02-04T08:44:15;99105.53;;;4.75;61.43
41573;BME280;27286;47.870;19.006;2023-02-04T08:46:41;99138.78;;;4.86;61.99
41573;BME280;27286;47.870;19.006;2023-02-04T08:49:06;99128.75;;;5.11;61.68
41573;BME280;27286;47.870;19.006;2023-02-04T08:51:32;99145.56;;;6.26;57.59
41573;BME280;27286;47.870;19.006;2023-02-04T08:53:57;99135.38;;;6.79;53.77
41573;BME280;27286;47.870;19.006;2023-02-04T08:56:23;99140.25;;;6.90;53.04
41573;BME280;27286;47.870;19.006;2023-02-04T08:58:48;99166.63;;;6.13;53.78
41573;BME280;27286;47.870;19.006;2023-02-04T09:01:14;99165.38;;;6.57;52.77
41573;BME280;27286;47.870;19.006;2023-02-04T09:03:40;99171.50;;;6.53;53.71
41573;BME280;27286;47.870;19.006;2023-02-04T09:06:06;99191.69;;;6.99;50.86
41573;BME280;27286;47.870;19.006;2023-02-04T09:08:32;99199.09;;;7.38;49.58
41573;BME280;27286;47.870;19.006;2023-02-04T09:10:58;99216.78;;;6.97;51.06
41573;BME280;27286;47.870;19.006;2023-02-04T09:13:23;99234.13;;;6.64;51.67
41573;BME280;27286;47.870;19.006;2023-02-04T09:15:49;99223.50;;;7.83;48.24
41573;BME280;27286;47.870;19.006;2023-02-04T09:18:16;99237.56;;;7.50;47.74
41573;BME280;27286;47.870;19.006;2023-02-04T09:20:43;99266.66;;;8.11;46.21
41573;BME280;27286;47.870;19.006;2023-02-04T09:23:09;99285.09;;;9.69;45.14
41573;BME280;27286;47.870;19.006;2023-02-04T09:25:37;99297.88;;;10.97;40.21
41573;BME280;27286;47.870;19.006;2023-02-04T09:28:03;99314.25;;;12.62;35.75
41573;BME280;27286;47.870;19.006;2023-02-04T09:30:29;99332.31;;;11.41;38.45
41573;BME280;27286;47.870;19.006;2023-02-04T09:32:54;99338.41;;;9.79;41.57
41573;BME280;27286;47.870;19.006;2023-02-04T09:35:20;99344.28;;;9.39;43.12
41573;BME280;27286;47.870;19.006;2023-02-04T09:37:45;99351.66;;;13.62;35.93
41573;BME280;27286;47.870;19.006;2023-02-04T09:40:16;99354.84;;;16.01;31.62
41573;BME280;27286;47.870;19.006;2023-02-04T09:42:43;99378.28;;;12.86;36.05
41573;BME280;27286;47.870;19.006;2023-02-04T09:45:26;99381.34;;;14.84;32.91
41573;BME280;27286;47.870;19.006;2023-02-04T09:47:53;99389.34;;;16.88;29.56
41573;BME280;27286;47.870;19.006;2023-02-04T09:50:21;99390.50;;;16.17;30.61
41573;BME280;27286;47.870;19.006;2023-02-04T09:52:49;99408.41;;;12.42;34.90
41573;BME280;27286;47.870;19.006;2023-02-04T09:55:18;99402.31;;;10.06;38.09
41573;BME280;27286;47.870;19.006;2023-02-04T09:57:44;99427.00;;;10.62;39.81
41573;BME280;27286;47.870;19.006;2023-02-04T10:00:19;99395.00;;;14.44;32.86
41573;BME280;27286;47.870;19.006;2023-02-04T10:02:45;99439.22;;;15.09;31.83
41573;BME280;27286;47.870;19.006;2023-02-04T10:05:20;99431.06;;;18.42;28.44
41573;BME280;27286;47.870;19.006;2023-02-04T10:07:49;99450.41;;;18.30;27.72
41573;BME280;27286;47.870;19.006;2023-02-04T10:10:22;99446.88;;;18.42;25.86
41573;BME280;27286;47.870;19.006;2023-02-04T10:12:51;99456.94;;;19.53;25.66
41573;BME280;27286;47.870;19.006;2023-02-04T10:15:19;99474.09;;;20.15;25.26
41573;BME280;27286;47.870;19.006;2023-02-04T10:17:51;99475.56;;;20.08;25.14
41573;BME280;27286;47.870;19.006;2023-02-04T10:20:20;99482.75;;;21.03;24.22
41573;BME280;27286;47.870;19.006;2023-02-04T10:22:47;99484.81;;;21.42;23.61
41573;BME280;27286;47.870;19.006;2023-02-04T10:25:15;99488.69;;;21.58;22.27
41573;BME280;27286;47.870;19.006;2023-02-04T10:27:54;99496.22;;;19.92;23.38
41573;BME280;27286;47.870;19.006;2023-02-04T10:32:47;99494.06;;;17.97;26.14
41573;BME280;27286;47.870;19.006;2023-02-04T10:35:16;99515.16;;;17.07;27.20
41573;BME280;27286;47.870;19.006;2023-02-04T10:37:41;99533.28;;;13.56;31.61
41573;BME280;27286;47.870;19.006;2023-02-04T10:40:28;99548.56;;;14.14;30.92
41573;BME280;27286;47.870;19.006;2023-02-04T10:42:54;99548.78;;;17.41;27.56
41573;BME280;27286;47.870;19.006;2023-02-04T10:45:24;99545.44;;;18.65;27.18
41573;BME280;27286;47.870;19.006;2023-02-04T10:47:51;99553.06;;;17.30;27.32
41573;BME280;27286;47.870;19.006;2023-02-04T10:50:18;99566.63;;;17.11;27.23
41573;BME280;27286;47.870;19.006;2023-02-04T10:52:47;99578.13;;;16.13;27.54
41573;BME280;27286;47.870;19.006;2023-02-04T10:55:17;99589.34;;;15.73;29.23
41573;BME280;27286;47.870;19.006;2023-02-04T10:57:45;99602.25;;;16.75;27.60
41573;BME280;27286;47.870;19.006;2023-02-04T11:05:19;99614.63;;;17.67;24.65
41573;BME280;27286;47.870;19.006;2023-02-04T11:07:46;99631.44;;;17.91;24.65
41573;BME280;27286;47.870;19.006;2023-02-04T11:10:19;99643.94;;;18.64;24.17
41573;BME280;27286;47.870;19.006;2023-02-04T11:12:59;99653.53;;;19.26;23.12
41573;BME280;27286;47.870;19.006;2023-02-04T11:15:40;99662.88;;;19.66;22.89
41573;BME280;27286;47.870;19.006;2023-02-04T11:18:11;99669.03;;;19.89;22.84
41573;BME280;27286;47.870;19.006;2023-02-04T11:20:37;99680.41;;;19.67;22.18
41573;BME280;27286;47.870;19.006;2023-02-04T11:26:13;99694.00;;;16.80;25.36
41573;BME280;27286;47.870;19.006;2023-02-04T11:34:47;99720.88;;;18.94;22.93
41573;BME280;27286;47.870;19.006;2023-02-04T11:41:58;99743.13;;;19.03;22.55
41573;BME280;27286;47.870;19.006;2023-02-04T11:44:24;99747.72;;;18.76;22.49
41573;BME280;27286;47.870;19.006;2023-02-04T11:46:51;99749.44;;;19.74;22.82
41573;BME280;27286;47.870;19.006;2023-02-04T11:49:20;99748.78;;;20.29;22.33
41573;BME280;27286;47.870;19.006;2023-02-04T11:51:48;99752.44;;;19.69;21.67
41573;BME280;27286;47.870;19.006;2023-02-04T11:54:15;99750.69;;;19.44;22.03
41573;BME280;27286;47.870;19.006;2023-02-04T11:56:44;99754.03;;;19.35;22.63
41573;BME280;27286;47.870;19.006;2023-02-04T11:59:11;99754.00;;;18.60;22.37
41573;BME280;27286;47.870;19.006;2023-02-04T12:01:36;99774.56;;;18.17;21.53
41573;BME280;27286;47.870;19.006;2023-02-04T12:04:05;99793.50;;;18.75;23.58
41573;BME280;27286;47.870;19.006;2023-02-04T12:06:36;99789.41;;;19.33;21.79
41573;BME280;27286;47.870;19.006;2023-02-04T12:14:17;99819.22;;;17.79;22.92
41573;BME280;27286;47.870;19.006;2023-02-04T12:16:45;99825.91;;;18.24;23.00
41573;BME280;27286;47.870;19.006;2023-02-04T12:19:11;99841.41;;;18.69;22.53
41573;BME280;27286;47.870;19.006;2023-02-04T12:21:39;99837.47;;;19.12;22.18
41573;BME280;27286;47.870;19.006;2023-02-04T12:24:05;99847.72;;;19.17;20.55
41573;BME280;27286;47.870;19.006;2023-02-04T12:26:31;99847.50;;;18.94;22.03
41573;BME280;27286;47.870;19.006;2023-02-04T12:28:57;99853.13;;;18.65;21.73
41573;BME280;27286;47.870;19.006;2023-02-04T12:31:25;99864.66;;;18.49;21.29
41573;BME280;27286;47.870;19.006;2023-02-04T12:33:51;99875.16;;;18.89;22.38
41573;BME280;27286;47.870;19.006;2023-02-04T12:36:18;99866.38;;;19.27;21.83
41573;BME280;27286;47.870;19.006;2023-02-04T12:38:44;99868.50;;;19.09;22.07
41573;BME280;27286;47.870;19.006;2023-02-04T12:41:09;99881.03;;;19.56;21.11
41573;BME280;27286;47.870;19.006;2023-02-04T12:43:34;99881.25;;;18.64;20.84
41573;BME280;27286;47.870;19.006;2023-02-04T12:46:00;99899.09;;;19.11;21.09
41573;BME280;27286;47.870;19.006;2023-02-04T12:48:25;99900.59;;;19.03;20.80
41573;BME280;27286;47.870;19.006;2023-02-04T12:50:51;99909.56;;;18.87;21.79
41573;BME280;27286;47.870;19.006;2023-02-04T12:53:16;99917.78;;;17.47;22.67
41573;BME280;27286;47.870;19.006;2023-02-04T12:55:41;99928.06;;;16.63;23.42
41573;BME280;27286;47.870;19.006;2023-02-04T12:58:07;99945.13;;;15.94;24.64
41573;BME280;27286;47.870;19.006;2023-02-04T13:00:32;99948.34;;;15.68;25.27
41573;BME280;27286;47.870;19.006;2023-02-04T13:02:59;99957.84;;;15.53;25.42
41573;BME280;27286;47.870;19.006;2023-02-04T13:05:24;99962.34;;;15.84;24.49
41573;BME280;27286;47.870;19.006;2023-02-04T13:07:50;99978.59;;;14.90;24.94
41573;BME280;27286;47.870;19.006;2023-02-04T13:10:16;99979.41;;;15.42;24.98
41573;BME280;27286;47.870;19.006;2023-02-04T13:12:42;99989.44;;;16.47;24.84
41573;BME280;27286;47.870;19.006;2023-02-04T13:15:08;99995.19;;;15.91;25.09
41573;BME280;27286;47.870;19.006;2023-02-04T13:17:34;100002.81;;;16.11;23.67
41573;BME280;27286;47.870;19.006;2023-02-04T13:19:59;100003.59;;;15.98;23.91